Data for 08/21/2018

Time Sea-Level Adjusted Pressure Absolute Pressure Temperature Relative Humidity Dew Point   
(mb) (inHg) (mb) (inHg) (C) (F) (%) (C) (F)
00:05 1023 30.21 852 25.16 7.8 46.1 81 4.8 40.6
00:10 1023 30.21 852 25.16 7.8 46 81 4.8 40.6
00:15 1023 30.21 852 25.16 7.7 45.9 81 4.7 40.5
00:20 1024 30.24 853 25.19 7.7 45.9 82 4.8 40.6
00:25 1024 30.24 853 25.19 7.7 45.9 81 4.6 40.3
00:30 1024 30.24 854 25.22 7.8 46 81 4.7 40.5
00:35 1024 30.24 854 25.22 7.8 46 81 4.7 40.5
00:40 1025 30.27 854 25.22 7.9 46.1 80 4.6 40.2
00:45 1025 30.27 854 25.22 8 46.4 79 4.5 40.2
00:50 1025 30.27 854 25.22 8.2 46.8 77 4.4 39.8
00:55 1025 30.27 854 25.22 8.3 47 77 4.6 40.2
01:00 1025 30.27 854 25.22 8.3 46.9 78 4.6 40.3
01:05 1025 30.27 854 25.22 8.2 46.8 79 4.8 40.6
01:10 1025 30.27 854 25.22 8.1 46.5 80 4.9 40.8
01:15 1025 30.27 855 25.25 8 46.4 80 4.8 40.7
01:20 1025 30.27 855 25.25 8 46.4 80 4.7 40.5
01:25 1025 30.27 855 25.25 8.1 46.5 80 4.8 40.6
01:30 1025 30.27 855 25.25 8 46.5 79 4.7 40.5
01:35 1025 30.27 855 25.25 8.1 46.5 80 4.8 40.6
01:40 1025 30.27 855 25.25 8.1 46.5 80 4.8 40.6
01:45 1025 30.27 855 25.25 8.1 46.5 79 4.7 40.5
01:50 1025 30.27 855 25.25 8 46.4 80 4.8 40.6
01:55 1025 30.27 854 25.22 8 46.4 80 4.8 40.6
02:00 1025 30.27 854 25.22 8 46.3 80 4.8 40.6
02:05 1025 30.27 854 25.22 8 46.3 79 4.6 40.3
02:10 1025 30.27 855 25.25 8 46.4 80 4.8 40.6
02:15 1025 30.27 855 25.25 8 46.4 80 4.8 40.6
02:20 1025 30.27 855 25.25 8 46.3 80 4.7 40.5
02:25 1025 30.27 855 25.25 8 46.4 80 4.8 40.6
02:30 1025 30.27 855 25.25 8 46.4 79 4.6 40.3
02:35 1025 30.27 855 25.25 8 46.4 80 4.8 40.6
02:40 1025 30.27 855 25.25 8 46.3 80 4.8 40.6
02:45 1025 30.27 855 25.25 8 46.3 80 4.7 40.5
02:50 1025 30.27 854 25.22 8 46.3 80 4.7 40.5
02:55 1025 30.27 854 25.22 8 46.3 80 4.8 40.6
03:00 1025 30.27 854 25.22 8 46.3 80 4.7 40.5
03:05 1025 30.27 854 25.22 8 46.4 80 4.8 40.6
03:10 1025 30.27 854 25.22 8 46.4 80 4.7 40.5
03:15 1025 30.27 855 25.25 8 46.4 80 4.8 40.7
03:20 1025 30.27 855 25.25 8 46.4 80 4.9 40.7
03:25 1025 30.27 855 25.25 8 46.4 81 4.9 40.7
03:30 1025 30.27 855 25.25 7.9 46.3 81 4.9 40.9
03:35 1025 30.27 855 25.25 8 46.3 81 5 40.9
03:40 1025 30.27 855 25.25 7.9 46.3 81 4.9 40.9
03:45 1025 30.27 855 25.25 7.9 46.3 81 5 40.9
03:50 1025 30.27 855 25.25 7.9 46.2 82 5 41
03:55 1025 30.27 855 25.25 7.9 46.1 82 4.9 40.9
04:00 1025 30.27 855 25.25 7.9 46.2 82 5 40.9
04:05 1025 30.27 855 25.25 7.9 46.2 82 4.9 40.9
04:10 1025 30.27 855 25.25 7.9 46.3 81 4.9 40.8
04:15 1025 30.27 855 25.25 8 46.3 80 4.8 40.6
04:20 1025 30.27 855 25.25 8 46.4 80 4.7 40.5
04:25 1025 30.27 855 25.25 8 46.4 79 4.7 40.4
04:30 1025 30.27 855 25.25 8 46.4 80 4.8 40.6
04:35 1026 30.3 855 25.25 8 46.4 80 4.8 40.6
04:40 1026 30.3 855 25.25 7.9 46.3 80 4.8 40.6
04:45 1026 30.3 855 25.25 7.9 46.2 81 4.8 40.6
04:50 1026 30.3 855 25.25 7.9 46.2 80 4.8 40.6
04:55 1026 30.3 855 25.25 7.9 46.3 80 4.8 40.6
05:00 1026 30.3 855 25.25 7.9 46.2 80 4.7 40.4
05:05 1026 30.3 855 25.25 7.9 46.3 80 4.7 40.5
05:10 1026 30.3 855 25.25 8 46.3 80 4.7 40.4
05:15 1026 30.3 855 25.25 8 46.4 80 4.7 40.5
05:20 1026 30.3 855 25.25 8 46.3 80 4.7 40.4
05:25 1026 30.3 855 25.25 8 46.3 79 4.6 40.3
05:30 1026 30.3 855 25.25 8 46.4 80 4.7 40.5
05:35 1026 30.3 855 25.25 8 46.4 80 4.7 40.5
05:40 1026 30.3 855 25.25 8 46.3 80 4.7 40.5
05:45 1026 30.3 855 25.25 8 46.3 79 4.5 40.2
05:50 1026 30.3 855 25.25 8 46.5 79 4.6 40.2
05:55 1026 30.3 855 25.25 8 46.5 79 4.6 40.2
06:00 1026 30.3 855 25.25 8.1 46.5 78 4.5 40.1
06:05 1025 30.27 855 25.25 8 46.5 79 4.6 40.2
06:10 1025 30.27 855 25.25 8.1 46.5 79 4.6 40.2
06:15 1025 30.27 855 25.25 8 46.5 79 4.6 40.2
06:20 1025 30.27 855 25.25 8 46.5 79 4.6 40.3
06:25 1025 30.27 855 25.25 8 46.4 79 4.6 40.3
06:30 1025 30.27 855 25.25 8 46.4 79 4.7 40.4
06:35 1026 30.3 855 25.25 7.9 46.3 80 4.8 40.6
06:40 1026 30.3 855 25.25 7.9 46.1 81 4.7 40.5
06:45 1026 30.3 855 25.25 7.8 46.1 81 4.8 40.6
06:50 1026 30.3 855 25.25 7.8 46 82 4.9 40.7
06:55 1026 30.3 855 25.25 7.8 46 81 4.8 40.6
07:00 1026 30.3 855 25.25 7.8 46.1 81 4.8 40.6
07:05 1026 30.3 855 25.25 7.8 46.1 81 4.8 40.7
07:10 1026 30.3 855 25.25 7.8 46.1 81 4.8 40.7
07:15 1026 30.3 855 25.25 7.9 46.1 81 4.8 40.7
07:20 1026 30.3 855 25.25 7.8 46.1 82 4.9 40.9
07:25 1026 30.3 855 25.25 7.8 46.1 81 4.8 40.6
07:30 1026 30.3 855 25.25 7.8 46.1 81 4.8 40.7
07:35 1026 30.3 855 25.25 7.8 46 82 4.8 40.7
07:40 1026 30.3 855 25.25 7.8 46 82 4.9 40.8
07:45 1026 30.3 855 25.25 7.7 45.9 82 4.9 40.9
07:50 1026 30.3 855 25.25 7.7 45.9 82 4.9 40.7
07:55 1026 30.3 855 25.25 7.8 46 82 4.8 40.7
08:00 1025 30.27 855 25.25 7.9 46.1 81 4.9 40.8
08:05 1026 30.3 855 25.25 7.9 46.1 81 4.8 40.7
08:10 1026 30.3 855 25.25 7.9 46.2 81 4.9 40.8
08:15 1026 30.3 855 25.25 8 46.3 81 4.8 40.7
08:20 1026 30.3 855 25.25 8 46.4 80 4.9 40.8
08:25 1026 30.3 855 25.25 8 46.5 81 4.9 40.8
08:30 1026 30.3 855 25.25 8.1 46.6 80 4.9 40.7
08:35 1026 30.3 855 25.25 8.2 46.7 79 4.7 40.5
08:40 1026 30.3 855 25.25 8.2 46.8 79 4.7 40.5
08:45 1026 30.3 855 25.25 8.3 46.9 79 4.8 40.6
08:50 1026 30.3 855 25.25 8.3 47 78 4.8 40.6
08:55 1026 30.3 855 25.25 8.4 47.1 78 4.8 40.7
09:00 1026 30.3 855 25.25 8.4 47.1 78 4.8 40.6
09:05 1026 30.3 855 25.25 8.5 47.3 77 4.8 40.7
09:10 1026 30.3 855 25.25 8.6 47.5 77 4.9 40.8
09:15 1025 30.27 855 25.25 8.7 47.7 77 5 41
09:20 1025 30.27 855 25.25 8.9 47.9 76 4.9 40.9
09:25 1025 30.27 855 25.25 8.8 47.9 76 4.9 40.8
09:30 1025 30.27 855 25.25 8.9 47.9 76 4.9 40.8
09:35 1025 30.27 855 25.25 8.9 48.1 76 5 41.1
09:40 1025 30.27 855 25.25 9.1 48.4 76 5 41.1
09:45 1026 30.3 855 25.25 9.1 48.4 76 5.1 41.1
09:50 1026 30.3 855 25.25 9.2 48.5 75 5.1 41.1
09:55 1026 30.3 855 25.25 9.2 48.5 76 5.2 41.3
10:00 1026 30.3 855 25.25 9.1 48.4 77 5.2 41.4
10:05 1026 30.3 855 25.25 9.3 48.7 77 5.4 41.6
10:10 1026 30.3 855 25.25 9.3 48.7 77 5.4 41.8
10:15 1026 30.3 855 25.25 9.4 48.9 76 5.4 41.7
10:20 1026 30.3 855 25.25 9.4 48.9 75 5.3 41.5
10:25 1026 30.3 855 25.25 9.7 49.4 75 5.5 41.9
10:30 1026 30.3 855 25.25 9.7 49.5 74 5.4 41.7
10:35 1026 30.3 855 25.25 9.9 49.8 73 5.3 41.5
10:40 1026 30.3 855 25.25 10.1 50.2 73 5.5 41.8
10:45 1026 30.3 855 25.25 10.2 50.3 71 5.2 41.3
10:50 1026 30.3 855 25.25 10.4 50.7 70 5.2 41.4
10:55 1026 30.3 855 25.25 10.2 50.3 72 5.4 41.8
11:00 1026 30.3 855 25.25 10.2 50.4 72 5.4 41.7
11:05 1026 30.3 855 25.25 10.1 50.3 70 5 41
11:10 1026 30.3 855 25.25 10.6 51.1 70 5.3 41.6
11:15 1026 30.3 855 25.25 10.9 51.6 68 5.3 41.5
11:20 1026 30.3 855 25.25 10.3 50.5 72 5.5 42
11:25 1026 30.3 855 25.25 10.2 50.3 72 5.4 41.7
11:30 1026 30.3 855 25.25 9.9 49.8 73 5.3 41.6
11:35 1026 30.3 855 25.25 10.1 50.2 73 5.4 41.7
11:40 1026 30.3 855 25.25 10.3 50.5 71 5.2 41.4
11:45 1026 30.3 855 25.25 10.2 50.4 72 5.3 41.6
11:50 1026 30.3 856 25.28 10.2 50.3 73 5.5 41.9
11:55 1026 30.3 856 25.28 10.1 50.1 73 5.6 42
12:00 1026 30.3 856 25.28 10.2 50.3 73 5.6 42
12:05 1026 30.3 856 25.28 10.2 50.4 73 5.6 42.1
12:10 1026 30.3 856 25.28 10.4 50.6 72 5.5 41.9
12:15 1026 30.3 856 25.28 10.6 51 72 5.7 42.3
12:20 1026 30.3 856 25.28 10.5 50.9 72 5.6 42.1
12:25 1026 30.3 856 25.28 10.5 50.9 70 5.4 41.7
12:30 1026 30.3 855 25.25 10.9 51.7 69 5.5 41.9
12:35 1026 30.3 855 25.25 11 51.9 69 5.5 41.9
12:40 1026 30.3 855 25.25 11.2 52.1 68 5.5 41.9
12:45 1026 30.3 855 25.25 11.6 52.8 67 5.7 42.3
12:50 1026 30.3 855 25.25 11.6 53 67 5.7 42.3
12:55 1026 30.3 855 25.25 11.6 52.9 66 5.6 42.1
13:00 1026 30.3 855 25.25 11.6 52.8 66 5.6 42
13:05 1026 30.3 855 25.25 11.7 53.1 67 5.8 42.4
13:10 1026 30.3 855 25.25 12.4 54.3 64 5.8 42.5
13:15 1026 30.3 855 25.25 12 53.6 67 6 42.8
13:20 1026 30.3 855 25.25 11.5 52.6 67 5.7 42.2
13:25 1026 30.3 855 25.25 11.4 52.5 67 5.6 42
13:30 1026 30.3 855 25.25 11.5 52.7 68 5.8 42.5
13:35 1026 30.3 855 25.25 11.5 52.7 69 6 42.9
13:40 1026 30.3 855 25.25 11.7 53 68 6 42.9
13:45 1026 30.3 855 25.25 11.8 53.3 67 5.9 42.6
13:50 1026 30.3 855 25.25 12 53.5 67 6.1 42.9
13:55 1026 30.3 855 25.25 11.9 53.5 68 6.2 43.2
14:00 1026 30.3 855 25.25 11.8 53.2 67 5.8 42.5
14:05 1026 30.3 855 25.25 11.9 53.4 66 5.8 42.4
14:10 1026 30.3 855 25.25 11.9 53.5 66 5.8 42.4
14:15 1026 30.3 855 25.25 12.4 54.3 63 5.7 42.2
14:20 1026 30.3 855 25.25 12.5 54.5 63 5.8 42.5
14:25 1026 30.3 855 25.25 12.7 54.9 63 6 42.7
14:30 1026 30.3 855 25.25 12.6 54.6 65 6.2 43.1
14:35 1026 30.3 855 25.25 12.4 54.4 65 6 42.9
14:40 1026 30.3 855 25.25 12.7 54.8 62 5.6 42.1
14:45 1026 30.3 855 25.25 12.4 54.3 65 5.9 42.7
14:50 1026 30.3 855 25.25 12.6 54.7 64 6.1 43
14:55 1026 30.3 855 25.25 12.3 54.1 65 5.9 42.7
15:00 1026 30.3 855 25.25 12.3 54.1 64 5.6 42.1
15:05 1026 30.3 855 25.25 12.1 53.8 65 5.8 42.5
15:10 1026 30.3 855 25.25 12.3 54.1 64 5.6 42.1
15:15 1026 30.3 855 25.25 12.4 54.3 62 5.3 41.6
15:20 1026 30.3 855 25.25 12.6 54.6 62 5.6 42
15:25 1026 30.3 855 25.25 12.8 55.1 60 5.3 41.6
15:30 1026 30.3 855 25.25 13 55.4 60 5.4 41.8
15:35 1026 30.3 855 25.25 13.4 56.2 61 6 42.8
15:40 1026 30.3 855 25.25 13.2 55.8 61 6 42.8
15:45 1026 30.3 855 25.25 12.9 55.2 62 5.8 42.4
15:50 1026 30.3 855 25.25 12.7 54.8 62 5.7 42.3
15:55 1026 30.3 855 25.25 13 55.4 61 5.6 42.1
16:00 1026 30.3 855 25.25 13.3 55.9 61 5.9 42.7
16:05 1026 30.3 855 25.25 13.1 55.6 62 6.1 43
16:10 1026 30.3 855 25.25 13.1 55.5 62 6 42.8
16:15 1026 30.3 855 25.25 13.2 55.7 60 5.7 42.2
16:20 1026 30.3 855 25.25 13.4 56.1 60 6 42.7
16:25 1026 30.3 855 25.25 13.6 56.4 60 6 42.8
16:30 1026 30.3 855 25.25 13.6 56.6 60 6.1 43
16:35 1026 30.3 855 25.25 13.5 56.4 60 6 42.8
16:40 1026 30.3 855 25.25 13.4 56.2 60 5.9 42.6
16:45 1026 30.3 855 25.25 13.5 56.2 61 6.2 43.2
16:50 1026 30.3 855 25.25 13.6 56.5 60 6 42.8
16:55 1026 30.3 855 25.25 13.8 56.8 60 6.2 43.2
17:00 1026 30.3 855 25.25 13.6 56.4 61 6.2 43.2
17:05 1026 30.3 855 25.25 13.5 56.3 61 6.3 43.3
17:10 1026 30.3 855 25.25 13.5 56.3 61 6.1 43
17:15 1026 30.3 855 25.25 13.7 56.7 59 6 42.8
17:20 1026 30.3 855 25.25 13.3 56 61 6.1 43
17:25 1026 30.3 855 25.25 13.4 56.1 61 6.1 43
17:30 1026 30.3 855 25.25 13.3 56 61 5.9 42.6
17:35 1026 30.3 855 25.25 13.2 55.7 61 5.9 42.6
17:40 1026 30.3 855 25.25 13.6 56.6 60 6 42.9
17:45 1026 30.3 855 25.25 13.3 55.9 62 6.2 43.1
17:50 1026 30.3 855 25.25 13.3 55.9 62 6.2 43.1
17:55 1026 30.3 855 25.25 13.4 56 61 6.1 43.1
18:00 1026 30.3 855 25.25 13.3 55.9 61 6.1 42.9
18:05 1026 30.3 855 25.25 13.1 55.6 62 6 42.8
18:10 1026 30.3 855 25.25 13.2 55.8 62 6.1 43
18:15 1026 30.3 855 25.25 13.2 55.7 62 6.1 43
18:20 1026 30.3 855 25.25 13 55.4 62 6 42.8
18:25 1026 30.3 855 25.25 12.9 55.3 63 6 42.9
18:30 1026 30.3 855 25.25 13 55.3 63 6.2 43.1
18:35 1026 30.3 855 25.25 13.1 55.5 62 6.1 43
18:40 1026 30.3 855 25.25 13.1 55.5 63 6.2 43.2
18:45 1026 30.3 855 25.25 13.1 55.6 63 6.2 43.2
18:50 1026 30.3 855 25.25 13 55.4 62 6.1 42.9
18:55 1026 30.3 855 25.25 13.1 55.5 62 6 42.9
19:00 1026 30.3 855 25.25 13 55.4 63 6.1 43
19:05 1026 30.3 855 25.25 13 55.3 63 6.2 43.1
19:10 1026 30.3 855 25.25 13 55.3 63 6.1 43
19:15 1026 30.3 855 25.25 12.9 55.2 63 6.1 43
19:20 1026 30.3 855 25.25 12.8 55.1 63 6 42.8
19:25 1026 30.3 855 25.25 12.8 55 64 6.1 43
19:30 1026 30.3 855 25.25 12.8 55 64 6.1 42.9
19:35 1026 30.3 855 25.25 12.8 55 64 6.1 43
19:40 1026 30.3 855 25.25 12.7 54.9 64 6.1 43
19:45 1026 30.3 855 25.25 12.7 54.8 65 6.2 43.2
19:50 1026 30.3 855 25.25 12.7 54.8 65 6.3 43.4
19:55 1026 30.3 855 25.25 12.6 54.7 65 6.4 43.5
20:00 1026 30.3 855 25.25 12.5 54.6 66 6.4 43.4
20:05 1026 30.3 855 25.25 12.5 54.5 66 6.4 43.6
20:10 1026 30.3 855 25.25 12.5 54.5 66 6.4 43.6
20:15 1026 30.3 855 25.25 12.4 54.3 67 6.5 43.7
20:20 1026 30.3 855 25.25 12.3 54.2 67 6.5 43.7
20:25 1026 30.3 855 25.25 12.2 54 68 6.5 43.8
20:30 1026 30.3 855 25.25 12.2 54 67 6.4 43.6
20:35 1026 30.3 855 25.25 12.2 53.9 68 6.6 43.8
20:40 1026 30.3 855 25.25 12.1 53.8 69 6.6 43.9
20:45 1026 30.3 855 25.25 12.1 53.8 69 6.6 44
20:50 1026 30.3 855 25.25 12 53.7 69 6.6 43.9
20:55 1026 30.3 855 25.25 12 53.7 69 6.6 43.9
21:00 1026 30.3 855 25.25 12 53.6 70 6.7 44
21:05 1026 30.3 855 25.25 11.9 53.5 70 6.7 44.1
21:10 1026 30.3 855 25.25 11.9 53.5 70 6.7 44
21:15 1026 30.3 855 25.25 11.9 53.4 69 6.4 43.6
21:20 1026 30.3 855 25.25 11.9 53.5 67 6 42.8
21:25 1026 30.3 855 25.25 12 53.5 66 5.8 42.4
21:30 1026 30.3 855 25.25 12 53.6 66 5.9 42.7
21:35 1026 30.3 855 25.25 11.9 53.4 70 6.5 43.8
21:40 1026 30.3 855 25.25 11.7 53.1 70 6.5 43.7
21:45 1026 30.3 855 25.25 11.7 53 71 6.6 43.9
21:50 1026 30.3 855 25.25 11.6 52.9 70 6.3 43.3
21:55 1026 30.3 855 25.25 11.6 52.9 70 6.3 43.4
22:00 1026 30.3 855 25.25 11.6 53 69 6.2 43.2
22:05 1026 30.3 855 25.25 11.6 52.9 69 6.1 43
22:10 1026 30.3 855 25.25 11.6 52.9 69 6 42.9
22:15 1026 30.3 855 25.25 11.6 52.9 69 6.1 42.9
22:20 1026 30.3 855 25.25 11.6 52.9 69 6.1 43
22:25 1026 30.3 855 25.25 11.5 52.7 70 6.2 43.2
22:30 1026 30.3 855 25.25 11.5 52.7 68 6 42.7
22:35 1026 30.3 855 25.25 11.5 52.7 70 6.2 43.2
22:40 1026 30.3 855 25.25 11.4 52.5 70 6.2 43.2
22:45 1026 30.3 855 25.25 11.4 52.4 70 6.1 43.1
22:50 1026 30.3 855 25.25 11.3 52.4 70 6.1 43
22:55 1026 30.3 855 25.25 11.3 52.4 70 6.1 43
23:00 1026 30.3 855 25.25 11.4 52.4 69 6 42.7
23:05 1026 30.3 855 25.25 11.4 52.4 69 5.9 42.6
23:10 1026 30.3 855 25.25 11.3 52.4 68 5.8 42.4
23:15 1026 30.3 855 25.25 11.4 52.4 69 5.8 42.5
23:20 1026 30.3 855 25.25 11.3 52.4 69 5.9 42.6
23:25 1026 30.3 855 25.25 11.3 52.3 70 6 42.8
23:30 1025 30.27 855 25.25 11.2 52.2 70 6 42.9
23:35 1026 30.3 855 25.25 11.2 52.2 71 6.1 43
23:40 1025 30.27 855 25.25 11.2 52.2 70 6.1 42.9
23:45 1025 30.27 855 25.25 11.2 52.1 71 6.1 42.9
23:50 1025 30.27 855 25.25 11.1 52 71 6.2 43.1
23:55 1025 30.27 855 25.25 11.1 51.9 72 6.2 43.2
24:00 1025 30.27 855 25.25 11 51.8 72 6.2 43.2